McGrew, Nebraska
Current Conditions -  °F | °C
As of 2:53 AM on Thursday 23 Oct 2014 (Local Time) from KBFF Reporting Station
Clear Clear  
Wind Chill:   Ceiling: Unl
Heat Index:   Visibility: 10mi
Dew Point: -2°   Wind: 0mph
Humidity: 65%   Direction: NA
Pressure: 30.11"   Gusts: NA
Location:  41.75°N, 103.42°W
Report Text: KBFF 230853Z AUTO 00000KT 10SM CLR 04/M02 A3011 RMK AO2 SLP183 T00391022 53005 $
Loading
Personal Weather Stations






























Interactive Weather Map
Tropical Storm Tracking
New forecast layout! Learn more

10-Day Weather Forecast

Advertisements
Track Severe Weather on mobile